sensor_id;sensor_type;location;lat;lon;timestamp;P1;durP1;ratioP1;P2;durP2;ratioP2
24613;SDS011;12760;46.296;25.290;2022-11-30T00:01:57;4.07;;;3.97;;
24613;SDS011;12760;46.296;25.290;2022-11-30T00:04:22;3.20;;;3.10;;
24613;SDS011;12760;46.296;25.290;2022-11-30T00:06:48;1.93;;;1.93;;
24613;SDS011;12760;46.296;25.290;2022-11-30T00:09:14;3.97;;;3.77;;
24613;SDS011;12760;46.296;25.290;2022-11-30T00:11:40;5.07;;;4.63;;
24613;SDS011;12760;46.296;25.290;2022-11-30T00:14:05;3.50;;;3.37;;
24613;SDS011;12760;46.296;25.290;2022-11-30T00:16:31;5.03;;;4.63;;
24613;SDS011;12760;46.296;25.290;2022-11-30T00:18:57;3.33;;;3.07;;
24613;SDS011;12760;46.296;25.290;2022-11-30T00:21:22;2.20;;;2.20;;
24613;SDS011;12760;46.296;25.290;2022-11-30T00:23:49;4.20;;;4.00;;
24613;SDS011;12760;46.296;25.290;2022-11-30T00:26:16;7.07;;;5.27;;
24613;SDS011;12760;46.296;25.290;2022-11-30T00:28:43;3.23;;;3.13;;
24613;SDS011;12760;46.296;25.290;2022-11-30T00:31:13;5.47;;;5.20;;
24613;SDS011;12760;46.296;25.290;2022-11-30T00:33:40;5.50;;;5.07;;
24613;SDS011;12760;46.296;25.290;2022-11-30T00:36:07;3.10;;;3.00;;
24613;SDS011;12760;46.296;25.290;2022-11-30T00:38:41;5.87;;;5.30;;
24613;SDS011;12760;46.296;25.290;2022-11-30T00:41:07;3.60;;;3.50;;
24613;SDS011;12760;46.296;25.290;2022-11-30T00:43:33;2.87;;;2.77;;
24613;SDS011;12760;46.296;25.290;2022-11-30T00:45:59;3.63;;;3.53;;
24613;SDS011;12760;46.296;25.290;2022-11-30T00:48:25;3.10;;;3.00;;
24613;SDS011;12760;46.296;25.290;2022-11-30T00:50:51;3.00;;;2.90;;
24613;SDS011;12760;46.296;25.290;2022-11-30T00:53:17;3.17;;;3.07;;
24613;SDS011;12760;46.296;25.290;2022-11-30T00:55:44;4.03;;;3.93;;
24613;SDS011;12760;46.296;25.290;2022-11-30T00:58:10;4.50;;;4.10;;
24613;SDS011;12760;46.296;25.290;2022-11-30T01:00:36;7.20;;;6.70;;
24613;SDS011;12760;46.296;25.290;2022-11-30T01:03:02;2.57;;;2.53;;
24613;SDS011;12760;46.296;25.290;2022-11-30T01:05:28;3.70;;;3.60;;
24613;SDS011;12760;46.296;25.290;2022-11-30T01:07:54;4.27;;;4.07;;
24613;SDS011;12760;46.296;25.290;2022-11-30T01:10:23;3.97;;;3.87;;
24613;SDS011;12760;46.296;25.290;2022-11-30T01:12:48;3.63;;;3.53;;
24613;SDS011;12760;46.296;25.290;2022-11-30T01:15:14;5.20;;;4.93;;
24613;SDS011;12760;46.296;25.290;2022-11-30T01:17:40;4.30;;;3.97;;
24613;SDS011;12760;46.296;25.290;2022-11-30T01:20:06;2.30;;;2.30;;
24613;SDS011;12760;46.296;25.290;2022-11-30T01:22:32;2.70;;;2.60;;
24613;SDS011;12760;46.296;25.290;2022-11-30T01:24:58;3.07;;;2.97;;
24613;SDS011;12760;46.296;25.290;2022-11-30T01:27:24;3.40;;;3.30;;
24613;SDS011;12760;46.296;25.290;2022-11-30T01:29:50;5.03;;;4.37;;
24613;SDS011;12760;46.296;25.290;2022-11-30T01:32:15;5.23;;;4.97;;
24613;SDS011;12760;46.296;25.290;2022-11-30T01:34:41;14.13;;;6.07;;
24613;SDS011;12760;46.296;25.290;2022-11-30T01:37:06;2.77;;;2.70;;
24613;SDS011;12760;46.296;25.290;2022-11-30T01:39:32;4.13;;;3.93;;
24613;SDS011;12760;46.296;25.290;2022-11-30T01:41:58;5.33;;;5.03;;
24613;SDS011;12760;46.296;25.290;2022-11-30T01:46:59;2.43;;;2.43;;
24613;SDS011;12760;46.296;25.290;2022-11-30T01:49:35;6.43;;;6.13;;
24613;SDS011;12760;46.296;25.290;2022-11-30T01:52:19;2.97;;;2.87;;
24613;SDS011;12760;46.296;25.290;2022-11-30T01:54:57;2.77;;;2.73;;
24613;SDS011;12760;46.296;25.290;2022-11-30T01:57:34;6.67;;;6.27;;
24613;SDS011;12760;46.296;25.290;2022-11-30T02:00:04;2.30;;;2.30;;
24613;SDS011;12760;46.296;25.290;2022-11-30T02:02:44;3.33;;;3.23;;
24613;SDS011;12760;46.296;25.290;2022-11-30T02:05:17;6.93;;;3.60;;
24613;SDS011;12760;46.296;25.290;2022-11-30T02:07:45;4.53;;;4.40;;
24613;SDS011;12760;46.296;25.290;2022-11-30T02:10:14;5.27;;;4.87;;
24613;SDS011;12760;46.296;25.290;2022-11-30T02:12:58;4.13;;;3.97;;
24613;SDS011;12760;46.296;25.290;2022-11-30T02:22:11;4.10;;;4.00;;
24613;SDS011;12760;46.296;25.290;2022-11-30T02:29:55;3.13;;;3.03;;
24613;SDS011;12760;46.296;25.290;2022-11-30T02:35:28;4.37;;;4.17;;
24613;SDS011;12760;46.296;25.290;2022-11-30T02:37:57;3.47;;;3.37;;
24613;SDS011;12760;46.296;25.290;2022-11-30T02:40:25;4.70;;;4.20;;
24613;SDS011;12760;46.296;25.290;2022-11-30T02:42:51;7.20;;;6.80;;
24613;SDS011;12760;46.296;25.290;2022-11-30T02:45:19;5.17;;;4.97;;
24613;SDS011;12760;46.296;25.290;2022-11-30T02:48:06;3.67;;;3.57;;
24613;SDS011;12760;46.296;25.290;2022-11-30T02:50:38;3.40;;;3.30;;
24613;SDS011;12760;46.296;25.290;2022-11-30T02:53:08;3.23;;;3.13;;
24613;SDS011;12760;46.296;25.290;2022-11-30T02:55:34;2.13;;;2.13;;
24613;SDS011;12760;46.296;25.290;2022-11-30T02:58:00;5.77;;;3.47;;
24613;SDS011;12760;46.296;25.290;2022-11-30T03:00:26;5.27;;;4.20;;
24613;SDS011;12760;46.296;25.290;2022-11-30T03:02:52;2.83;;;2.73;;
24613;SDS011;12760;46.296;25.290;2022-11-30T03:05:17;2.33;;;2.33;;
24613;SDS011;12760;46.296;25.290;2022-11-30T03:07:43;3.10;;;3.00;;
24613;SDS011;12760;46.296;25.290;2022-11-30T03:10:09;2.27;;;2.27;;
24613;SDS011;12760;46.296;25.290;2022-11-30T03:12:35;10.93;;;8.17;;
24613;SDS011;12760;46.296;25.290;2022-11-30T03:15:01;4.50;;;4.40;;
24613;SDS011;12760;46.296;25.290;2022-11-30T03:17:27;8.80;;;8.13;;
24613;SDS011;12760;46.296;25.290;2022-11-30T03:19:52;10.17;;;9.57;;
24613;SDS011;12760;46.296;25.290;2022-11-30T03:22:18;7.67;;;7.17;;
24613;SDS011;12760;46.296;25.290;2022-11-30T03:24:44;4.60;;;4.17;;
24613;SDS011;12760;46.296;25.290;2022-11-30T03:27:09;5.77;;;5.57;;
24613;SDS011;12760;46.296;25.290;2022-11-30T03:29:36;16.17;;;9.53;;
24613;SDS011;12760;46.296;25.290;2022-11-30T03:32:02;13.67;;;12.37;;
24613;SDS011;12760;46.296;25.290;2022-11-30T03:34:28;6.53;;;6.23;;
24613;SDS011;12760;46.296;25.290;2022-11-30T03:36:53;4.67;;;4.47;;
24613;SDS011;12760;46.296;25.290;2022-11-30T03:39:20;8.77;;;6.70;;
24613;SDS011;12760;46.296;25.290;2022-11-30T03:41:45;4.10;;;3.90;;
24613;SDS011;12760;46.296;25.290;2022-11-30T03:44:11;5.87;;;5.07;;
24613;SDS011;12760;46.296;25.290;2022-11-30T03:46:37;5.83;;;5.63;;
24613;SDS011;12760;46.296;25.290;2022-11-30T03:49:02;4.20;;;3.37;;
24613;SDS011;12760;46.296;25.290;2022-11-30T03:51:28;3.50;;;3.40;;
24613;SDS011;12760;46.296;25.290;2022-11-30T03:53:54;8.37;;;5.13;;
24613;SDS011;12760;46.296;25.290;2022-11-30T03:56:19;7.37;;;6.87;;
24613;SDS011;12760;46.296;25.290;2022-11-30T03:58:45;4.47;;;4.27;;
24613;SDS011;12760;46.296;25.290;2022-11-30T04:01:12;6.37;;;5.77;;
24613;SDS011;12760;46.296;25.290;2022-11-30T04:03:40;8.73;;;8.13;;
24613;SDS011;12760;46.296;25.290;2022-11-30T04:06:07;11.90;;;10.97;;
24613;SDS011;12760;46.296;25.290;2022-11-30T04:08:34;8.63;;;7.83;;
24613;SDS011;12760;46.296;25.290;2022-11-30T04:11:01;6.63;;;6.13;;
24613;SDS011;12760;46.296;25.290;2022-11-30T04:13:28;3.23;;;3.13;;
24613;SDS011;12760;46.296;25.290;2022-11-30T04:15:55;6.90;;;6.37;;
24613;SDS011;12760;46.296;25.290;2022-11-30T04:18:21;5.77;;;5.47;;
24613;SDS011;12760;46.296;25.290;2022-11-30T04:20:49;7.30;;;6.93;;
24613;SDS011;12760;46.296;25.290;2022-11-30T04:23:16;7.87;;;7.47;;
24613;SDS011;12760;46.296;25.290;2022-11-30T04:25:42;6.17;;;5.80;;
24613;SDS011;12760;46.296;25.290;2022-11-30T04:28:08;14.17;;;9.53;;
24613;SDS011;12760;46.296;25.290;2022-11-30T04:30:34;9.87;;;8.83;;
24613;SDS011;12760;46.296;25.290;2022-11-30T04:33:01;6.57;;;6.17;;
24613;SDS011;12760;46.296;25.290;2022-11-30T04:35:27;6.27;;;5.97;;
24613;SDS011;12760;46.296;25.290;2022-11-30T04:37:53;6.33;;;5.87;;
24613;SDS011;12760;46.296;25.290;2022-11-30T04:40:19;9.93;;;9.30;;
24613;SDS011;12760;46.296;25.290;2022-11-30T04:42:45;6.67;;;6.30;;
24613;SDS011;12760;46.296;25.290;2022-11-30T04:45:11;7.93;;;7.43;;
24613;SDS011;12760;46.296;25.290;2022-11-30T04:47:36;5.83;;;5.53;;
24613;SDS011;12760;46.296;25.290;2022-11-30T04:50:03;5.83;;;5.53;;
24613;SDS011;12760;46.296;25.290;2022-11-30T04:52:29;5.13;;;4.93;;
24613;SDS011;12760;46.296;25.290;2022-11-30T04:54:55;8.93;;;8.07;;
24613;SDS011;12760;46.296;25.290;2022-11-30T04:57:21;14.13;;;13.03;;
24613;SDS011;12760;46.296;25.290;2022-11-30T04:59:47;9.57;;;8.87;;
24613;SDS011;12760;46.296;25.290;2022-11-30T05:02:13;8.47;;;8.03;;
24613;SDS011;12760;46.296;25.290;2022-11-30T05:04:39;6.93;;;5.53;;
24613;SDS011;12760;46.296;25.290;2022-11-30T05:07:05;4.60;;;4.30;;
24613;SDS011;12760;46.296;25.290;2022-11-30T05:09:31;6.20;;;5.23;;
24613;SDS011;12760;46.296;25.290;2022-11-30T05:11:57;8.03;;;7.43;;
24613;SDS011;12760;46.296;25.290;2022-11-30T05:14:23;6.30;;;6.03;;
24613;SDS011;12760;46.296;25.290;2022-11-30T05:16:49;3.93;;;3.83;;
24613;SDS011;12760;46.296;25.290;2022-11-30T05:19:14;7.50;;;6.93;;
24613;SDS011;12760;46.296;25.290;2022-11-30T05:21:41;4.73;;;4.53;;
24613;SDS011;12760;46.296;25.290;2022-11-30T05:24:06;8.10;;;6.80;;
24613;SDS011;12760;46.296;25.290;2022-11-30T05:26:33;10.87;;;5.93;;
24613;SDS011;12760;46.296;25.290;2022-11-30T05:28:59;5.67;;;5.47;;
24613;SDS011;12760;46.296;25.290;2022-11-30T05:31:26;9.43;;;6.90;;
24613;SDS011;12760;46.296;25.290;2022-11-30T05:33:52;5.13;;;4.93;;
24613;SDS011;12760;46.296;25.290;2022-11-30T05:36:18;8.77;;;8.30;;
24613;SDS011;12760;46.296;25.290;2022-11-30T05:38:44;9.60;;;8.93;;
24613;SDS011;12760;46.296;25.290;2022-11-30T05:41:10;10.20;;;8.23;;
24613;SDS011;12760;46.296;25.290;2022-11-30T05:43:36;9.03;;;8.40;;
24613;SDS011;12760;46.296;25.290;2022-11-30T05:46:02;13.67;;;12.60;;
24613;SDS011;12760;46.296;25.290;2022-11-30T05:48:29;7.13;;;6.63;;
24613;SDS011;12760;46.296;25.290;2022-11-30T05:51:03;11.93;;;10.10;;
24613;SDS011;12760;46.296;25.290;2022-11-30T05:53:30;10.23;;;9.50;;
24613;SDS011;12760;46.296;25.290;2022-11-30T05:55:55;8.13;;;7.77;;
24613;SDS011;12760;46.296;25.290;2022-11-30T05:58:25;9.63;;;8.67;;
24613;SDS011;12760;46.296;25.290;2022-11-30T06:00:50;7.20;;;6.73;;
24613;SDS011;12760;46.296;25.290;2022-11-30T06:03:16;12.87;;;12.03;;
24613;SDS011;12760;46.296;25.290;2022-11-30T06:05:42;14.50;;;13.07;;
24613;SDS011;12760;46.296;25.290;2022-11-30T06:08:07;12.30;;;9.80;;
24613;SDS011;12760;46.296;25.290;2022-11-30T06:10:33;12.87;;;11.77;;
24613;SDS011;12760;46.296;25.290;2022-11-30T06:13:04;10.63;;;9.50;;
24613;SDS011;12760;46.296;25.290;2022-11-30T06:15:32;7.43;;;7.03;;
24613;SDS011;12760;46.296;25.290;2022-11-30T06:17:57;23.30;;;14.53;;
24613;SDS011;12760;46.296;25.290;2022-11-30T06:20:23;12.77;;;12.07;;
24613;SDS011;12760;46.296;25.290;2022-11-30T06:22:49;7.40;;;7.03;;
24613;SDS011;12760;46.296;25.290;2022-11-30T06:25:14;7.67;;;7.23;;
24613;SDS011;12760;46.296;25.290;2022-11-30T06:27:40;9.97;;;7.47;;
24613;SDS011;12760;46.296;25.290;2022-11-30T06:30:07;6.57;;;6.17;;
24613;SDS011;12760;46.296;25.290;2022-11-30T06:32:34;11.10;;;10.17;;
24613;SDS011;12760;46.296;25.290;2022-11-30T06:34:59;10.53;;;8.90;;
24613;SDS011;12760;46.296;25.290;2022-11-30T06:37:25;13.00;;;11.97;;
24613;SDS011;12760;46.296;25.290;2022-11-30T06:39:51;5.07;;;4.87;;
24613;SDS011;12760;46.296;25.290;2022-11-30T06:42:17;11.93;;;11.23;;
24613;SDS011;12760;46.296;25.290;2022-11-30T06:44:43;7.57;;;7.20;;
24613;SDS011;12760;46.296;25.290;2022-11-30T06:47:09;7.57;;;7.27;;
24613;SDS011;12760;46.296;25.290;2022-11-30T06:49:35;8.70;;;7.97;;
24613;SDS011;12760;46.296;25.290;2022-11-30T06:52:01;7.13;;;6.60;;
24613;SDS011;12760;46.296;25.290;2022-11-30T06:54:27;12.13;;;8.07;;
24613;SDS011;12760;46.296;25.290;2022-11-30T06:56:53;13.73;;;12.77;;
24613;SDS011;12760;46.296;25.290;2022-11-30T06:59:20;5.03;;;4.80;;
24613;SDS011;12760;46.296;25.290;2022-11-30T07:01:46;6.33;;;5.83;;
24613;SDS011;12760;46.296;25.290;2022-11-30T07:04:11;10.37;;;9.67;;
24613;SDS011;12760;46.296;25.290;2022-11-30T07:06:37;8.87;;;8.37;;
24613;SDS011;12760;46.296;25.290;2022-11-30T07:09:03;9.40;;;8.90;;
24613;SDS011;12760;46.296;25.290;2022-11-30T07:11:28;18.67;;;14.43;;
24613;SDS011;12760;46.296;25.290;2022-11-30T07:13:55;10.40;;;9.80;;
24613;SDS011;12760;46.296;25.290;2022-11-30T07:16:21;9.57;;;8.73;;
24613;SDS011;12760;46.296;25.290;2022-11-30T07:18:47;7.83;;;7.47;;
24613;SDS011;12760;46.296;25.290;2022-11-30T07:21:13;10.40;;;9.60;;
24613;SDS011;12760;46.296;25.290;2022-11-30T07:23:38;10.67;;;9.47;;
24613;SDS011;12760;46.296;25.290;2022-11-30T07:26:23;13.43;;;12.13;;
24613;SDS011;12760;46.296;25.290;2022-11-30T07:28:50;7.33;;;7.03;;
24613;SDS011;12760;46.296;25.290;2022-11-30T07:31:26;12.40;;;9.27;;
24613;SDS011;12760;46.296;25.290;2022-11-30T07:33:53;11.53;;;10.67;;
24613;SDS011;12760;46.296;25.290;2022-11-30T07:36:20;31.37;;;10.80;;
24613;SDS011;12760;46.296;25.290;2022-11-30T07:38:47;24.77;;;19.43;;
24613;SDS011;12760;46.296;25.290;2022-11-30T07:41:13;35.80;;;21.83;;
24613;SDS011;12760;46.296;25.290;2022-11-30T07:43:39;25.63;;;23.60;;
24613;SDS011;12760;46.296;25.290;2022-11-30T07:46:05;23.33;;;20.50;;
24613;SDS011;12760;46.296;25.290;2022-11-30T07:48:31;14.87;;;13.10;;
24613;SDS011;12760;46.296;25.290;2022-11-30T07:53:55;14.40;;;13.10;;
24613;SDS011;12760;46.296;25.290;2022-11-30T07:56:22;34.43;;;13.90;;
24613;SDS011;12760;46.296;25.290;2022-11-30T07:58:49;13.33;;;12.20;;
24613;SDS011;12760;46.296;25.290;2022-11-30T08:01:19;22.00;;;14.93;;
24613;SDS011;12760;46.296;25.290;2022-11-30T08:03:47;16.73;;;15.23;;
24613;SDS011;12760;46.296;25.290;2022-11-30T08:06:15;15.37;;;12.03;;
24613;SDS011;12760;46.296;25.290;2022-11-30T08:08:46;8.40;;;7.63;;
24613;SDS011;12760;46.296;25.290;2022-11-30T08:11:14;5.13;;;4.93;;
24613;SDS011;12760;46.296;25.290;2022-11-30T08:13:41;8.43;;;7.63;;
24613;SDS011;12760;46.296;25.290;2022-11-30T08:16:08;6.27;;;6.07;;
24613;SDS011;12760;46.296;25.290;2022-11-30T08:18:38;8.60;;;7.67;;
24613;SDS011;12760;46.296;25.290;2022-11-30T08:21:05;5.03;;;4.83;;
24613;SDS011;12760;46.296;25.290;2022-11-30T08:23:34;10.33;;;9.43;;
24613;SDS011;12760;46.296;25.290;2022-11-30T08:26:02;11.70;;;10.57;;
24613;SDS011;12760;46.296;25.290;2022-11-30T08:28:30;8.27;;;7.50;;
24613;SDS011;12760;46.296;25.290;2022-11-30T08:30:59;7.93;;;7.13;;
24613;SDS011;12760;46.296;25.290;2022-11-30T08:33:30;8.70;;;8.17;;
24613;SDS011;12760;46.296;25.290;2022-11-30T08:36:04;10.73;;;9.90;;
24613;SDS011;12760;46.296;25.290;2022-11-30T08:38:35;6.20;;;5.73;;
24613;SDS011;12760;46.296;25.290;2022-11-30T08:41:01;6.27;;;4.97;;
24613;SDS011;12760;46.296;25.290;2022-11-30T08:43:28;10.20;;;7.67;;
24613;SDS011;12760;46.296;25.290;2022-11-30T08:45:54;4.53;;;4.33;;
24613;SDS011;12760;46.296;25.290;2022-11-30T08:48:20;5.47;;;5.27;;
24613;SDS011;12760;46.296;25.290;2022-11-30T08:50:45;9.30;;;8.67;;
24613;SDS011;12760;46.296;25.290;2022-11-30T08:53:11;15.93;;;11.13;;
24613;SDS011;12760;46.296;25.290;2022-11-30T08:55:37;11.77;;;10.73;;
24613;SDS011;12760;46.296;25.290;2022-11-30T08:58:02;9.33;;;8.60;;
24613;SDS011;12760;46.296;25.290;2022-11-30T09:00:28;9.63;;;8.53;;
24613;SDS011;12760;46.296;25.290;2022-11-30T09:02:54;6.27;;;5.90;;
24613;SDS011;12760;46.296;25.290;2022-11-30T09:05:20;9.60;;;8.90;;
24613;SDS011;12760;46.296;25.290;2022-11-30T09:07:46;8.87;;;7.40;;
24613;SDS011;12760;46.296;25.290;2022-11-30T09:10:12;8.90;;;8.23;;
24613;SDS011;12760;46.296;25.290;2022-11-30T09:12:38;7.43;;;7.03;;
24613;SDS011;12760;46.296;25.290;2022-11-30T09:15:05;8.27;;;5.83;;
24613;SDS011;12760;46.296;25.290;2022-11-30T09:17:32;10.37;;;5.63;;
24613;SDS011;12760;46.296;25.290;2022-11-30T09:19:58;7.50;;;7.13;;
24613;SDS011;12760;46.296;25.290;2022-11-30T09:22:24;7.23;;;6.50;;
24613;SDS011;12760;46.296;25.290;2022-11-30T09:24:50;5.43;;;5.03;;
24613;SDS011;12760;46.296;25.290;2022-11-30T09:27:16;7.57;;;6.93;;
24613;SDS011;12760;46.296;25.290;2022-11-30T09:29:42;12.33;;;7.73;;
24613;SDS011;12760;46.296;25.290;2022-11-30T09:32:08;5.27;;;4.87;;
24613;SDS011;12760;46.296;25.290;2022-11-30T09:34:34;6.73;;;6.33;;
24613;SDS011;12760;46.296;25.290;2022-11-30T09:36:59;15.17;;;4.47;;
24613;SDS011;12760;46.296;25.290;2022-11-30T09:39:25;4.20;;;4.00;;
24613;SDS011;12760;46.296;25.290;2022-11-30T09:44:53;3.13;;;3.03;;
24613;SDS011;12760;46.296;25.290;2022-11-30T09:50:20;6.63;;;6.17;;
24613;SDS011;12760;46.296;25.290;2022-11-30T09:52:50;4.53;;;4.23;;
24613;SDS011;12760;46.296;25.290;2022-11-30T09:58:05;5.97;;;5.47;;
24613;SDS011;12760;46.296;25.290;2022-11-30T10:00:37;35.47;;;4.67;;
24613;SDS011;12760;46.296;25.290;2022-11-30T10:03:03;4.63;;;4.03;;
24613;SDS011;12760;46.296;25.290;2022-11-30T10:16:35;2.37;;;2.27;;
24613;SDS011;12760;46.296;25.290;2022-11-30T10:19:14;2.43;;;2.33;;
24613;SDS011;12760;46.296;25.290;2022-11-30T10:22:13;1.80;;;1.80;;
24613;SDS011;12760;46.296;25.290;2022-11-30T10:27:50;3.23;;;3.13;;
24613;SDS011;12760;46.296;25.290;2022-11-30T10:30:19;3.47;;;3.30;;
24613;SDS011;12760;46.296;25.290;2022-11-30T10:32:48;3.53;;;3.23;;
24613;SDS011;12760;46.296;25.290;2022-11-30T10:35:36;3.20;;;3.10;;
24613;SDS011;12760;46.296;25.290;2022-11-30T10:38:13;2.80;;;2.70;;
24613;SDS011;12760;46.296;25.290;2022-11-30T10:40:50;1.53;;;1.53;;
24613;SDS011;12760;46.296;25.290;2022-11-30T10:46:26;1.50;;;1.50;;
24613;SDS011;12760;46.296;25.290;2022-11-30T10:51:20;2.10;;;2.07;;
24613;SDS011;12760;46.296;25.290;2022-11-30T10:53:47;1.10;;;1.10;;
24613;SDS011;12760;46.296;25.290;2022-11-30T10:56:13;1.93;;;1.93;;
24613;SDS011;12760;46.296;25.290;2022-11-30T10:58:58;1.83;;;1.83;;
24613;SDS011;12760;46.296;25.290;2022-11-30T11:01:30;1.53;;;1.53;;
24613;SDS011;12760;46.296;25.290;2022-11-30T11:07:06;2.00;;;1.90;;
24613;SDS011;12760;46.296;25.290;2022-11-30T11:12:14;1.30;;;1.30;;
24613;SDS011;12760;46.296;25.290;2022-11-30T11:14:43;2.33;;;2.30;;
24613;SDS011;12760;46.296;25.290;2022-11-30T11:17:29;1.40;;;1.40;;
24613;SDS011;12760;46.296;25.290;2022-11-30T11:19:57;2.00;;;1.93;;
24613;SDS011;12760;46.296;25.290;2022-11-30T11:22:23;2.40;;;2.33;;
24613;SDS011;12760;46.296;25.290;2022-11-30T11:25:34;1.20;;;1.20;;
24613;SDS011;12760;46.296;25.290;2022-11-30T11:27:54;3.20;;;2.97;;
24613;SDS011;12760;46.296;25.290;2022-11-30T11:35:33;2.27;;;2.17;;
24613;SDS011;12760;46.296;25.290;2022-11-30T11:38:07;1.57;;;1.57;;
24613;SDS011;12760;46.296;25.290;2022-11-30T11:41:52;1.60;;;1.60;;
24613;SDS011;12760;46.296;25.290;2022-11-30T11:46:36;3.80;;;2.10;;
24613;SDS011;12760;46.296;25.290;2022-11-30T11:49:28;1.90;;;1.80;;
24613;SDS011;12760;46.296;25.290;2022-11-30T11:52:03;1.60;;;1.60;;
24613;SDS011;12760;46.296;25.290;2022-11-30T11:57:15;6.33;;;2.70;;
24613;SDS011;12760;46.296;25.290;2022-11-30T12:08:06;2.83;;;1.87;;
24613;SDS011;12760;46.296;25.290;2022-11-30T12:10:41;1.20;;;1.20;;
24613;SDS011;12760;46.296;25.290;2022-11-30T12:13:18;1.13;;;1.13;;
24613;SDS011;12760;46.296;25.290;2022-11-30T12:16:12;2.43;;;2.13;;
24613;SDS011;12760;46.296;25.290;2022-11-30T12:27:56;1.57;;;1.57;;
24613;SDS011;12760;46.296;25.290;2022-11-30T12:30:31;1.20;;;1.20;;
24613;SDS011;12760;46.296;25.290;2022-11-30T12:33:09;1.53;;;1.53;;
24613;SDS011;12760;46.296;25.290;2022-11-30T12:46:33;1.37;;;1.37;;
24613;SDS011;12760;46.296;25.290;2022-11-30T12:49:20;1.60;;;1.60;;
24613;SDS011;12760;46.296;25.290;2022-11-30T12:54:20;1.33;;;1.33;;
24613;SDS011;12760;46.296;25.290;2022-11-30T12:57:24;1.80;;;1.80;;
24613;SDS011;12760;46.296;25.290;2022-11-30T13:11:16;1.40;;;1.40;;
24613;SDS011;12760;46.296;25.290;2022-11-30T13:14:03;1.50;;;1.50;;
24613;SDS011;12760;46.296;25.290;2022-11-30T13:16:35;1.37;;;1.37;;
24613;SDS011;12760;46.296;25.290;2022-11-30T13:21:51;1.40;;;1.40;;
24613;SDS011;12760;46.296;25.290;2022-11-30T13:24:23;1.90;;;1.90;;
24613;SDS011;12760;46.296;25.290;2022-11-30T13:29:53;1.67;;;1.67;;
24613;SDS011;12760;46.296;25.290;2022-11-30T13:32:32;1.53;;;1.53;;
24613;SDS011;12760;46.296;25.290;2022-11-30T13:37:59;1.73;;;1.67;;
24613;SDS011;12760;46.296;25.290;2022-11-30T13:40:29;2.20;;;2.10;;
24613;SDS011;12760;46.296;25.290;2022-11-30T13:42:56;2.63;;;2.53;;
24613;SDS011;12760;46.296;25.290;2022-11-30T13:45:30;2.70;;;2.60;;
24613;SDS011;12760;46.296;25.290;2022-11-30T13:47:57;4.93;;;2.43;;
24613;SDS011;12760;46.296;25.290;2022-11-30T13:50:26;3.57;;;3.30;;
24613;SDS011;12760;46.296;25.290;2022-11-30T13:53:08;1.90;;;1.90;;
24613;SDS011;12760;46.296;25.290;2022-11-30T13:58:27;2.67;;;2.57;;
24613;SDS011;12760;46.296;25.290;2022-11-30T14:09:12;1.77;;;1.67;;
24613;SDS011;12760;46.296;25.290;2022-11-30T14:11:40;3.07;;;2.97;;
24613;SDS011;12760;46.296;25.290;2022-11-30T14:17:19;4.23;;;4.03;;
24613;SDS011;12760;46.296;25.290;2022-11-30T14:19:51;1.87;;;1.87;;
24613;SDS011;12760;46.296;25.290;2022-11-30T14:22:19;4.07;;;3.57;;
24613;SDS011;12760;46.296;25.290;2022-11-30T14:24:46;3.53;;;3.33;;
24613;SDS011;12760;46.296;25.290;2022-11-30T14:27:17;4.00;;;3.80;;
24613;SDS011;12760;46.296;25.290;2022-11-30T14:29:47;3.07;;;2.20;;
24613;SDS011;12760;46.296;25.290;2022-11-30T14:32:19;4.53;;;4.17;;
24613;SDS011;12760;46.296;25.290;2022-11-30T14:34:53;4.57;;;1.70;;
24613;SDS011;12760;46.296;25.290;2022-11-30T14:37:27;63.67;;;11.03;;
24613;SDS011;12760;46.296;25.290;2022-11-30T14:40:02;7.43;;;6.83;;
24613;SDS011;12760;46.296;25.290;2022-11-30T14:42:30;2.90;;;2.70;;
24613;SDS011;12760;46.296;25.290;2022-11-30T14:44:57;7.80;;;4.70;;
24613;SDS011;12760;46.296;25.290;2022-11-30T14:47:30;5.27;;;4.97;;
24613;SDS011;12760;46.296;25.290;2022-11-30T14:49:58;8.10;;;7.37;;
24613;SDS011;12760;46.296;25.290;2022-11-30T14:55:16;2.67;;;2.57;;
24613;SDS011;12760;46.296;25.290;2022-11-30T14:57:49;4.60;;;4.33;;
24613;SDS011;12760;46.296;25.290;2022-11-30T15:00:39;5.53;;;5.13;;
24613;SDS011;12760;46.296;25.290;2022-11-30T15:03:28;4.50;;;4.20;;
24613;SDS011;12760;46.296;25.290;2022-11-30T15:05:55;5.50;;;5.10;;
24613;SDS011;12760;46.296;25.290;2022-11-30T15:08:23;4.97;;;4.70;;
24613;SDS011;12760;46.296;25.290;2022-11-30T15:10:53;6.10;;;5.50;;
24613;SDS011;12760;46.296;25.290;2022-11-30T15:13:21;8.80;;;4.57;;
24613;SDS011;12760;46.296;25.290;2022-11-30T15:15:51;4.07;;;3.73;;
24613;SDS011;12760;46.296;25.290;2022-11-30T15:18:21;4.27;;;4.07;;
24613;SDS011;12760;46.296;25.290;2022-11-30T15:23:22;4.47;;;4.20;;
24613;SDS011;12760;46.296;25.290;2022-11-30T15:25:49;11.97;;;9.50;;
24613;SDS011;12760;46.296;25.290;2022-11-30T15:28:39;6.77;;;6.27;;
24613;SDS011;12760;46.296;25.290;2022-11-30T15:31:09;5.33;;;5.13;;
24613;SDS011;12760;46.296;25.290;2022-11-30T15:33:40;6.87;;;6.37;;
24613;SDS011;12760;46.296;25.290;2022-11-30T15:36:13;7.40;;;6.73;;
24613;SDS011;12760;46.296;25.290;2022-11-30T15:38:39;4.60;;;4.40;;
24613;SDS011;12760;46.296;25.290;2022-11-30T15:41:14;10.07;;;8.60;;
24613;SDS011;12760;46.296;25.290;2022-11-30T15:43:48;24.97;;;5.83;;
24613;SDS011;12760;46.296;25.290;2022-11-30T15:49:02;10.43;;;5.10;;
24613;SDS011;12760;46.296;25.290;2022-11-30T15:51:45;5.40;;;5.10;;
24613;SDS011;12760;46.296;25.290;2022-11-30T15:54:40;7.73;;;7.20;;
24613;SDS011;12760;46.296;25.290;2022-11-30T15:57:13;9.27;;;7.13;;
24613;SDS011;12760;46.296;25.290;2022-11-30T15:59:40;10.17;;;6.83;;
24613;SDS011;12760;46.296;25.290;2022-11-30T16:02:22;8.93;;;5.87;;
24613;SDS011;12760;46.296;25.290;2022-11-30T16:08:12;3.93;;;3.73;;
24613;SDS011;12760;46.296;25.290;2022-11-30T16:12:45;4.80;;;4.50;;
24613;SDS011;12760;46.296;25.290;2022-11-30T16:17:46;4.07;;;3.70;;
24613;SDS011;12760;46.296;25.290;2022-11-30T16:20:12;3.53;;;3.27;;
24613;SDS011;12760;46.296;25.290;2022-11-30T16:22:39;2.80;;;2.70;;
24613;SDS011;12760;46.296;25.290;2022-11-30T16:25:25;5.47;;;5.17;;
24613;SDS011;12760;46.296;25.290;2022-11-30T16:27:50;3.33;;;3.13;;
24613;SDS011;12760;46.296;25.290;2022-11-30T16:30:17;4.60;;;4.40;;
24613;SDS011;12760;46.296;25.290;2022-11-30T16:32:45;16.27;;;7.50;;
24613;SDS011;12760;46.296;25.290;2022-11-30T16:35:19;4.27;;;4.03;;
24613;SDS011;12760;46.296;25.290;2022-11-30T16:37:47;4.80;;;4.60;;
24613;SDS011;12760;46.296;25.290;2022-11-30T16:40:13;4.57;;;4.33;;
24613;SDS011;12760;46.296;25.290;2022-11-30T16:42:39;11.47;;;9.63;;
24613;SDS011;12760;46.296;25.290;2022-11-30T16:45:10;5.83;;;5.47;;
24613;SDS011;12760;46.296;25.290;2022-11-30T16:47:48;8.93;;;8.23;;
24613;SDS011;12760;46.296;25.290;2022-11-30T16:50:14;10.20;;;9.43;;
24613;SDS011;12760;46.296;25.290;2022-11-30T16:52:40;8.20;;;7.67;;
24613;SDS011;12760;46.296;25.290;2022-11-30T16:57:39;11.10;;;10.03;;
24613;SDS011;12760;46.296;25.290;2022-11-30T17:00:05;7.60;;;7.17;;
24613;SDS011;12760;46.296;25.290;2022-11-30T17:02:32;9.93;;;9.23;;
24613;SDS011;12760;46.296;25.290;2022-11-30T17:05:00;12.47;;;11.17;;
24613;SDS011;12760;46.296;25.290;2022-11-30T17:07:26;12.87;;;11.43;;
24613;SDS011;12760;46.296;25.290;2022-11-30T17:09:51;6.63;;;6.30;;
24613;SDS011;12760;46.296;25.290;2022-11-30T17:12:17;13.73;;;12.17;;